Time;durP1;ratioP1;P1;durP2;ratioP2;P2;SDS_P1;SDS_P2;PMS_P1;PMS_P2;Temp;Humidity;BMP_temperature;BMP_pressure;BME280_temperature;BME280_humidity;BME280_pressure;Samples;Min_cycle;Max_cycle;Signal;HPM_P1;HPM_P2
2023/08/29 00:00:45;;;;;;;;;;;22.80;53.80;;;;;;5120087;28;19931;-59
2023/08/29 00:03:12;;;;;;;;;;;22.80;53.80;;;;;;5101387;28;19930;-60
2023/08/29 00:05:39;;;;;;;;;;;22.80;53.80;;;;;;5113471;28;19934;-61
2023/08/29 00:08:06;;;;;;;;;;;22.80;53.80;;;;;;5094341;28;19978;-60
2023/08/29 00:10:33;;;;;;;;;;;22.80;53.70;;;;;;5129221;27;19980;-60
2023/08/29 00:12:59;;;;;;;;;;;22.80;53.70;;;;;;5105754;28;19931;-60
2023/08/29 00:15:27;;;;;;;;;;;22.80;53.70;;;;;;5103070;27;20382;-60
2023/08/29 00:17:54;;;;;;;;;;;22.80;53.70;;;;;;5107750;27;19931;-59
2023/08/29 00:20:21;;;;;;;;;;;22.80;53.70;;;;;;5118042;27;19946;-60
2023/08/29 00:22:48;;;;;;;;;;;22.80;53.70;;;;;;5126407;27;20023;-60
2023/08/29 00:25:14;;;;;;;;;;;22.80;53.70;;;;;;5101111;27;19923;-59
2023/08/29 00:27:42;;;;;;;;;;;22.80;53.70;;;;;;5115601;27;19923;-61
2023/08/29 00:30:09;;;;;;;;;;;22.80;53.70;;;;;;5107641;28;19924;-59
2023/08/29 00:32:37;;;;;;;;;;;22.80;53.70;;;;;;5105402;28;19924;-60
2023/08/29 00:35:04;;;;;;;;;;;22.80;53.70;;;;;;5117853;27;19949;-59
2023/08/29 00:37:31;;;;;;;;;;;22.80;53.60;;;;;;5126836;27;19931;-61
2023/08/29 00:39:58;;;;;;;;;;;22.80;53.60;;;;;;5114666;27;19972;-61
2023/08/29 00:42:25;;;;;;;;;;;22.80;53.60;;;;;;5128754;27;19923;-60
2023/08/29 00:44:51;;;;;;;;;;;22.80;53.60;;;;;;5108539;27;19972;-60
2023/08/29 00:47:18;;;;;;;;;;;22.80;53.60;;;;;;5101037;27;19927;-61
2023/08/29 00:49:46;;;;;;;;;;;22.80;53.60;;;;;;5117498;27;20511;-61
2023/08/29 00:52:13;;;;;;;;;;;22.80;53.60;;;;;;5123142;27;19928;-59
2023/08/29 00:54:40;;;;;;;;;;;22.80;53.60;;;;;;5109868;28;19936;-60
2023/08/29 00:57:06;;;;;;;;;;;22.80;53.60;;;;;;5113483;28;19973;-60
2023/08/29 00:59:33;;;;;;;;;;;22.80;53.50;;;;;;5112030;27;19931;-60
2023/08/29 01:02:00;;;;;;;;;;;22.80;53.50;;;;;;5116906;27;19932;-60
2023/08/29 01:04:27;;;;;;;;;;;22.80;53.50;;;;;;5126422;27;19924;-60
2023/08/29 01:06:55;;;;;;;;;;;22.80;53.60;;;;;;5126633;27;19931;-59
2023/08/29 01:09:22;;;;;;;;;;;22.80;53.50;;;;;;5108348;27;19980;-61
2023/08/29 01:11:51;;;;;;;;;;;22.80;53.50;;;;;;5117958;27;20088;-61
2023/08/29 01:14:20;;;;;;;;;;;22.80;53.50;;;;;;5105069;28;19928;-59
2023/08/29 01:16:49;;;;;;;;;;;22.70;53.40;;;;;;5112211;27;19946;-59
2023/08/29 01:19:16;;;;;;;;;;;22.70;53.40;;;;;;5113267;28;19927;-59
2023/08/29 01:21:46;;;;;;;;;;;22.70;53.50;;;;;;5107156;27;20331;-59
2023/08/29 01:24:17;;;;;;;;;;;22.70;53.50;;;;;;5112775;28;19931;-59
2023/08/29 01:26:45;;;;;;;;;;;22.70;53.50;;;;;;5096673;27;19931;-59
2023/08/29 01:29:12;;;;;;;;;;;22.70;53.50;;;;;;5112599;28;20327;-59
2023/08/29 01:31:39;;;;;;;;;;;22.70;53.40;;;;;;5111148;27;19972;-59
2023/08/29 01:34:05;;;;;;;;;;;22.80;53.50;;;;;;5097674;27;19923;-59
2023/08/29 01:36:38;;;;;;;;;;;22.70;53.40;;;;;;5112021;27;19928;-60
2023/08/29 01:39:05;;;;;;;;;;;22.80;53.50;;;;;;5104310;28;19924;-60
2023/08/29 01:41:31;;;;;;;;;;;22.80;53.50;;;;;;5116160;27;19923;-59
2023/08/29 01:44:00;;;;;;;;;;;22.80;53.50;;;;;;5113671;27;19930;-60
2023/08/29 01:46:27;;;;;;;;;;;22.80;53.50;;;;;;5109442;28;20009;-60
2023/08/29 01:48:53;;;;;;;;;;;22.80;53.50;;;;;;5130857;27;19931;-59
2023/08/29 01:51:20;;;;;;;;;;;22.80;53.50;;;;;;5107268;27;19927;-61
2023/08/29 01:53:47;;;;;;;;;;;22.80;53.50;;;;;;5106593;27;19927;-59
2023/08/29 01:56:14;;;;;;;;;;;22.80;53.50;;;;;;5122273;27;19953;-59
2023/08/29 01:58:41;;;;;;;;;;;22.70;53.40;;;;;;5103874;28;19932;-59
2023/08/29 02:01:09;;;;;;;;;;;22.70;53.40;;;;;;5112559;28;19924;-59
2023/08/29 02:03:35;;;;;;;;;;;22.70;53.40;;;;;;5103917;28;19928;-59
2023/08/29 02:06:03;;;;;;;;;;;22.70;53.30;;;;;;5110657;27;19930;-60
2023/08/29 02:08:29;;;;;;;;;;;22.70;53.30;;;;;;5098533;28;19924;-60
2023/08/29 02:10:56;;;;;;;;;;;22.80;53.40;;;;;;5125024;27;19923;-59
2023/08/29 02:13:23;;;;;;;;;;;22.70;53.30;;;;;;5109629;27;19924;-60
2023/08/29 02:15:49;;;;;;;;;;;22.70;53.30;;;;;;5097403;28;20091;-59
2023/08/29 02:18:18;;;;;;;;;;;22.70;53.30;;;;;;5121705;27;19927;-59
2023/08/29 02:20:44;;;;;;;;;;;22.70;53.20;;;;;;5103715;28;19924;-60
2023/08/29 02:23:11;;;;;;;;;;;22.70;53.20;;;;;;5100463;27;19927;-59
2023/08/29 02:25:38;;;;;;;;;;;22.70;53.20;;;;;;5107320;28;19924;-59
2023/08/29 02:28:05;;;;;;;;;;;22.70;53.20;;;;;;5111669;28;20007;-61
2023/08/29 02:30:35;;;;;;;;;;;22.70;53.20;;;;;;5124203;27;19939;-59
2023/08/29 02:33:02;;;;;;;;;;;22.70;53.20;;;;;;5121216;27;19932;-60
2023/08/29 02:35:30;;;;;;;;;;;22.70;53.10;;;;;;5099636;28;19947;-61
2023/08/29 02:37:56;;;;;;;;;;;22.70;53.10;;;;;;5096070;28;19924;-59
2023/08/29 02:40:23;;;;;;;;;;;22.70;53.10;;;;;;5109207;27;19924;-60
2023/08/29 02:42:50;;;;;;;;;;;22.70;53.00;;;;;;5106360;27;19928;-59
2023/08/29 02:45:17;;;;;;;;;;;22.70;53.00;;;;;;5101744;28;19969;-60
2023/08/29 02:47:44;;;;;;;;;;;22.70;53.00;;;;;;5096232;27;19969;-60
2023/08/29 02:50:11;;;;;;;;;;;22.70;53.00;;;;;;5098272;28;19935;-60
2023/08/29 02:52:39;;;;;;;;;;;22.70;53.00;;;;;;5110957;27;19927;-61
2023/08/29 02:55:06;;;;;;;;;;;22.70;52.90;;;;;;5105813;27;19924;-60
2023/08/29 02:57:33;;;;;;;;;;;22.70;52.90;;;;;;5125706;27;19923;-59
2023/08/29 03:00:00;;;;;;;;;;;22.70;52.90;;;;;;5130199;27;19923;-59
2023/08/29 03:02:26;;;;;;;;;;;22.70;52.90;;;;;;5124301;27;19968;-59
2023/08/29 03:04:53;;;;;;;;;;;22.70;52.90;;;;;;5124451;27;19923;-59
2023/08/29 03:07:20;;;;;;;;;;;22.70;52.90;;;;;;5124651;27;19991;-62
2023/08/29 03:09:48;;;;;;;;;;;22.70;52.90;;;;;;5093050;27;19932;-59
2023/08/29 03:12:15;;;;;;;;;;;22.70;52.80;;;;;;5110070;28;19932;-59
2023/08/29 03:14:41;;;;;;;;;;;22.70;52.80;;;;;;5121035;27;19923;-60
2023/08/29 03:17:08;;;;;;;;;;;22.70;52.80;;;;;;5133131;27;19969;-59
2023/08/29 03:19:35;;;;;;;;;;;22.70;52.80;;;;;;5105761;27;19923;-59
2023/08/29 03:22:02;;;;;;;;;;;22.70;52.80;;;;;;5103070;28;19981;-59
2023/08/29 03:24:28;;;;;;;;;;;22.70;52.80;;;;;;5108281;27;19923;-59
2023/08/29 03:26:56;;;;;;;;;;;22.70;52.80;;;;;;5097075;27;20011;-60
2023/08/29 03:29:23;;;;;;;;;;;22.70;52.80;;;;;;5105727;28;19930;-60
2023/08/29 03:31:50;;;;;;;;;;;22.70;52.80;;;;;;5123397;27;19938;-60
2023/08/29 03:34:17;;;;;;;;;;;22.70;52.70;;;;;;5127599;28;20381;-59
2023/08/29 03:36:43;;;;;;;;;;;22.70;52.70;;;;;;5102442;28;19924;-61
2023/08/29 03:39:10;;;;;;;;;;;22.70;52.70;;;;;;5107167;28;19924;-59
2023/08/29 03:41:38;;;;;;;;;;;22.70;52.70;;;;;;5106191;28;19924;-59
2023/08/29 03:44:06;;;;;;;;;;;22.70;52.70;;;;;;5124426;27;20019;-59
2023/08/29 03:46:33;;;;;;;;;;;22.70;52.70;;;;;;5110039;27;19927;-60
2023/08/29 03:48:59;;;;;;;;;;;22.70;52.70;;;;;;5125846;27;19955;-59
2023/08/29 03:51:26;;;;;;;;;;;22.70;52.70;;;;;;5106335;28;19924;-59
2023/08/29 03:53:53;;;;;;;;;;;22.70;52.70;;;;;;5116556;27;19923;-59
2023/08/29 03:56:20;;;;;;;;;;;22.70;52.70;;;;;;5113815;27;19976;-62
2023/08/29 03:58:48;;;;;;;;;;;22.70;52.70;;;;;;5109837;27;19930;-61
2023/08/29 04:01:19;;;;;;;;;;;22.70;52.70;;;;;;5117006;27;20277;-59
2023/08/29 04:03:46;;;;;;;;;;;22.70;52.60;;;;;;5109171;27;20174;-61
2023/08/29 04:06:12;;;;;;;;;;;22.70;52.70;;;;;;5139123;27;20292;-60
2023/08/29 04:08:39;;;;;;;;;;;22.70;52.60;;;;;;5132222;27;19923;-60
2023/08/29 04:11:06;;;;;;;;;;;22.70;52.60;;;;;;5106365;28;20277;-62
2023/08/29 04:13:33;;;;;;;;;;;22.70;52.60;;;;;;5105471;28;19928;-60
2023/08/29 04:16:01;;;;;;;;;;;22.70;52.60;;;;;;5106239;27;19924;-60
2023/08/29 04:18:29;;;;;;;;;;;22.70;52.70;;;;;;5130561;27;19931;-63
2023/08/29 04:20:56;;;;;;;;;;;22.70;52.60;;;;;;5103467;27;20330;-60
2023/08/29 04:23:23;;;;;;;;;;;22.70;52.60;;;;;;5109437;27;20407;-62
2023/08/29 04:25:50;;;;;;;;;;;22.70;52.60;;;;;;5106839;27;19930;-60
2023/08/29 04:28:20;;;;;;;;;;;22.70;52.60;;;;;;5127440;27;19924;-60
2023/08/29 04:30:47;;;;;;;;;;;22.70;52.60;;;;;;5103721;27;19932;-60
2023/08/29 04:33:13;;;;;;;;;;;22.60;52.50;;;;;;5108800;27;19935;-60
2023/08/29 04:35:42;;;;;;;;;;;22.60;52.50;;;;;;5111353;27;19972;-61
2023/08/29 04:38:08;;;;;;;;;;;22.60;52.50;;;;;;5117847;27;19924;-61
2023/08/29 04:40:36;;;;;;;;;;;22.60;52.50;;;;;;5113835;28;20381;-60
2023/08/29 04:43:03;;;;;;;;;;;22.60;52.50;;;;;;5114596;28;19923;-60
2023/08/29 04:45:29;;;;;;;;;;;22.60;52.50;;;;;;5109159;27;19927;-60
2023/08/29 04:47:56;;;;;;;;;;;22.60;52.40;;;;;;5114019;27;19931;-60
2023/08/29 04:50:25;;;;;;;;;;;22.60;52.40;;;;;;5123425;27;19963;-60
2023/08/29 04:52:55;;;;;;;;;;;22.60;52.40;;;;;;5108907;27;19930;-59
2023/08/29 04:55:21;;;;;;;;;;;22.60;52.40;;;;;;5107079;27;19928;-60
2023/08/29 04:57:48;;;;;;;;;;;22.60;52.30;;;;;;5116517;27;19930;-60
2023/08/29 05:00:14;;;;;;;;;;;22.60;52.30;;;;;;5122173;27;20365;-57
2023/08/29 05:02:42;;;;;;;;;;;22.60;52.30;;;;;;5087214;28;19951;-60
2023/08/29 05:05:10;;;;;;;;;;;22.60;52.30;;;;;;5109378;27;20022;-58
2023/08/29 05:07:36;;;;;;;;;;;22.60;52.30;;;;;;5123373;27;19928;-58
2023/08/29 05:10:06;;;;;;;;;;;22.60;52.30;;;;;;5113190;28;19938;-57
2023/08/29 05:12:33;;;;;;;;;;;22.60;52.20;;;;;;5094717;28;19981;-58
2023/08/29 05:15:00;;;;;;;;;;;22.60;52.20;;;;;;5107342;27;19924;-58
2023/08/29 05:17:27;;;;;;;;;;;22.60;52.20;;;;;;5101749;28;19927;-59
2023/08/29 05:19:53;;;;;;;;;;;22.60;52.20;;;;;;5104226;27;19935;-58
2023/08/29 05:22:20;;;;;;;;;;;22.60;52.20;;;;;;5129197;27;19976;-59
2023/08/29 05:24:47;;;;;;;;;;;22.60;52.10;;;;;;5102266;27;19928;-58
2023/08/29 05:27:15;;;;;;;;;;;22.60;52.20;;;;;;5105432;28;19994;-58
2023/08/29 05:29:42;;;;;;;;;;;22.60;52.10;;;;;;5117428;27;20017;-58
2023/08/29 05:32:09;;;;;;;;;;;22.60;52.20;;;;;;5094778;27;19928;-59
2023/08/29 05:34:36;;;;;;;;;;;22.60;52.20;;;;;;5103606;28;19923;-57
2023/08/29 05:37:03;;;;;;;;;;;22.60;52.20;;;;;;5106820;27;19928;-57
2023/08/29 05:39:30;;;;;;;;;;;22.60;52.30;;;;;;5107220;27;20269;-57
2023/08/29 05:41:57;;;;;;;;;;;22.60;52.40;;;;;;5100729;27;19920;-57
2023/08/29 05:44:25;;;;;;;;;;;22.60;52.40;;;;;;5107788;27;19942;-57
2023/08/29 05:46:52;;;;;;;;;;;22.60;52.50;;;;;;5103131;27;19924;-57
2023/08/29 05:49:19;;;;;;;;;;;22.60;52.50;;;;;;5099407;28;19931;-55
2023/08/29 05:51:46;;;;;;;;;;;22.60;52.50;;;;;;5085804;27;20438;-56
2023/08/29 05:54:12;;;;;;;;;;;22.60;52.50;;;;;;5102154;27;19927;-55
2023/08/29 05:56:39;;;;;;;;;;;22.60;52.50;;;;;;5107792;27;19927;-58
2023/08/29 05:59:06;;;;;;;;;;;22.60;52.50;;;;;;5107257;27;19927;-55
2023/08/29 06:01:35;;;;;;;;;;;22.60;52.50;;;;;;5117446;27;19928;-57
2023/08/29 06:04:04;;;;;;;;;;;22.60;52.50;;;;;;5110751;28;20393;-57
2023/08/29 06:06:31;;;;;;;;;;;22.60;52.50;;;;;;5109446;27;19919;-57
2023/08/29 06:08:59;;;;;;;;;;;22.70;52.60;;;;;;5094407;27;20015;-57
2023/08/29 06:11:28;;;;;;;;;;;22.70;52.60;;;;;;5109544;27;19920;-57
2023/08/29 06:13:55;;;;;;;;;;;22.60;52.50;;;;;;5131803;27;20022;-57
2023/08/29 06:16:22;;;;;;;;;;;22.70;52.60;;;;;;5103131;28;19931;-58
2023/08/29 06:18:50;;;;;;;;;;;22.70;52.60;;;;;;5108994;27;19967;-56
2023/08/29 06:21:17;;;;;;;;;;;22.70;52.60;;;;;;5094993;28;19924;-59
2023/08/29 06:23:44;;;;;;;;;;;22.70;52.50;;;;;;5094054;28;20018;-59
2023/08/29 06:26:10;;;;;;;;;;;22.70;52.60;;;;;;5113115;27;19981;-56
2023/08/29 06:28:37;;;;;;;;;;;22.70;52.60;;;;;;5090200;28;19941;-58
2023/08/29 06:31:04;;;;;;;;;;;22.70;52.60;;;;;;5094055;28;19927;-60
2023/08/29 06:33:31;;;;;;;;;;;22.70;52.60;;;;;;5111164;28;19924;-59
2023/08/29 06:35:59;;;;;;;;;;;22.70;52.60;;;;;;5094161;28;19970;-58
2023/08/29 06:38:26;;;;;;;;;;;22.70;52.60;;;;;;5093301;28;20009;-57
2023/08/29 06:40:56;;;;;;;;;;;22.70;52.60;;;;;;5093554;27;19982;-51
2023/08/29 06:43:23;;;;;;;;;;;22.70;52.60;;;;;;5091641;28;19977;-59
2023/08/29 06:45:49;;;;;;;;;;;22.70;52.60;;;;;;5091104;28;19974;-60
2023/08/29 06:48:16;;;;;;;;;;;22.70;52.60;;;;;;5093701;28;20359;-59
2023/08/29 06:50:43;;;;;;;;;;;22.70;52.60;;;;;;5091346;27;19920;-58
2023/08/29 06:53:11;;;;;;;;;;;22.70;52.60;;;;;;5090641;28;20442;-60
2023/08/29 06:55:38;;;;;;;;;;;22.80;52.70;;;;;;5093071;28;19924;-59
2023/08/29 06:58:05;;;;;;;;;;;22.80;52.70;;;;;;5092099;27;19930;-58
2023/08/29 07:00:32;;;;;;;;;;;22.80;52.70;;;;;;5112121;27;19951;-61
2023/08/29 07:02:58;;;;;;;;;;;22.80;52.80;;;;;;5102110;27;20314;-60
2023/08/29 07:05:26;;;;;;;;;;;22.80;52.80;;;;;;5125443;27;19927;-59
2023/08/29 07:07:52;;;;;;;;;;;22.80;52.90;;;;;;5122178;27;19927;-59
2023/08/29 07:10:21;;;;;;;;;;;22.80;52.80;;;;;;5095043;28;19932;-59
2023/08/29 07:12:49;;;;;;;;;;;22.80;52.90;;;;;;5121947;27;19951;-59
2023/08/29 07:15:15;;;;;;;;;;;22.80;52.90;;;;;;5099963;28;20356;-61
2023/08/29 07:17:42;;;;;;;;;;;22.80;52.90;;;;;;5126148;27;19927;-60
2023/08/29 07:20:10;;;;;;;;;;;22.80;52.90;;;;;;5098666;28;19924;-59
2023/08/29 07:22:37;;;;;;;;;;;22.80;52.90;;;;;;5104786;27;19972;-60
2023/08/29 07:25:05;;;;;;;;;;;22.80;52.90;;;;;;5107857;28;19931;-59
2023/08/29 07:27:33;;;;;;;;;;;22.80;52.90;;;;;;5126140;27;19930;-58
2023/08/29 07:30:00;;;;;;;;;;;22.90;53.00;;;;;;5111906;28;19924;-59
2023/08/29 07:32:28;;;;;;;;;;;22.90;53.10;;;;;;5092726;28;19970;-59
2023/08/29 07:34:56;;;;;;;;;;;22.90;53.10;;;;;;5120452;28;19931;-58
2023/08/29 07:37:22;;;;;;;;;;;22.80;53.00;;;;;;5114215;27;19934;-60
2023/08/29 07:39:49;;;;;;;;;;;22.90;53.10;;;;;;5092844;28;19923;-58
2023/08/29 07:42:16;;;;;;;;;;;22.80;53.00;;;;;;5092624;28;19928;-60
2023/08/29 07:44:45;;;;;;;;;;;22.90;53.10;;;;;;5093119;28;19924;-58
2023/08/29 07:47:11;;;;;;;;;;;22.90;53.10;;;;;;5097474;28;19974;-60
2023/08/29 07:49:39;;;;;;;;;;;22.90;53.10;;;;;;5092234;28;20008;-56
2023/08/29 07:52:06;;;;;;;;;;;22.90;53.20;;;;;;5118415;27;19924;-58
2023/08/29 07:54:32;;;;;;;;;;;22.90;53.20;;;;;;5097191;28;19923;-59
2023/08/29 07:56:59;;;;;;;;;;;22.90;53.20;;;;;;5096486;28;19984;-58
2023/08/29 07:59:26;;;;;;;;;;;22.90;53.20;;;;;;5111098;27;19927;-58
2023/08/29 08:01:54;;;;;;;;;;;22.90;53.20;;;;;;5093001;28;19924;-57
2023/08/29 08:04:21;;;;;;;;;;;22.90;53.20;;;;;;5092953;28;20019;-57
2023/08/29 08:06:48;;;;;;;;;;;22.90;53.20;;;;;;5092986;28;19932;-57
2023/08/29 08:09:15;;;;;;;;;;;22.90;53.20;;;;;;5099015;28;19927;-57
2023/08/29 08:11:42;;;;;;;;;;;22.90;53.20;;;;;;5092211;28;19924;-59
2023/08/29 08:14:09;;;;;;;;;;;22.90;53.20;;;;;;5092392;28;19973;-57
2023/08/29 08:16:35;;;;;;;;;;;23.00;53.30;;;;;;5090863;28;19935;-57
2023/08/29 08:19:04;;;;;;;;;;;23.00;53.30;;;;;;5073840;28;19927;-56
2023/08/29 08:21:30;;;;;;;;;;;23.00;53.30;;;;;;5095887;28;20028;-57
2023/08/29 08:23:57;;;;;;;;;;;23.00;53.30;;;;;;5089720;28;19924;-57
2023/08/29 08:26:24;;;;;;;;;;;23.00;53.30;;;;;;5092926;28;19924;-56
2023/08/29 08:28:52;;;;;;;;;;;23.00;53.30;;;;;;5112386;28;20026;-57
2023/08/29 08:31:18;;;;;;;;;;;23.00;53.30;;;;;;5094616;28;19992;-57
2023/08/29 08:33:45;;;;;;;;;;;23.00;53.40;;;;;;5096163;27;21023;-57
2023/08/29 08:36:13;;;;;;;;;;;23.00;53.40;;;;;;5115830;27;19977;-57
2023/08/29 08:38:40;;;;;;;;;;;23.00;53.40;;;;;;5102831;27;19976;-56
2023/08/29 08:41:07;;;;;;;;;;;23.00;54.00;;;;;;5089971;28;19928;-56
2023/08/29 08:43:33;;;;;;;;;;;23.00;53.40;;;;;;5096583;28;20648;-57
2023/08/29 08:46:00;;;;;;;;;;;23.00;53.40;;;;;;5099853;27;19969;-56
2023/08/29 08:48:27;;;;;;;;;;;23.00;53.40;;;;;;5096616;28;19976;-59
2023/08/29 08:50:54;;;;;;;;;;;23.00;53.40;;;;;;5116840;27;19934;-56
2023/08/29 08:53:22;;;;;;;;;;;23.00;53.40;;;;;;5112950;27;19927;-57
2023/08/29 08:55:49;;;;;;;;;;;23.10;53.50;;;;;;5099577;28;19924;-57
2023/08/29 08:58:15;;;;;;;;;;;23.10;53.60;;;;;;5095930;28;19932;-58
2023/08/29 09:00:42;;;;;;;;;;;23.10;53.60;;;;;;5091603;28;19946;-57
2023/08/29 09:03:09;;;;;;;;;;;23.10;53.60;;;;;;5096834;28;19923;-53
2023/08/29 09:05:36;;;;;;;;;;;23.00;53.50;;;;;;5096022;28;19931;-57
2023/08/29 09:08:02;;;;;;;;;;;23.10;53.60;;;;;;5121099;27;19977;-57
2023/08/29 09:10:34;;;;;;;;;;;23.10;54.20;;;;;;5096985;28;19928;-58
2023/08/29 09:13:00;;;;;;;;;;;23.00;53.50;;;;;;5097152;28;19924;-57
2023/08/29 09:15:27;;;;;;;;;;;23.10;53.60;;;;;;5117567;27;20099;-56
2023/08/29 09:17:54;;;;;;;;;;;23.00;53.50;;;;;;5096589;28;19924;-57
2023/08/29 09:20:21;;;;;;;;;;;23.00;53.50;;;;;;5092205;28;20311;-57
2023/08/29 09:22:48;;;;;;;;;;;23.10;53.60;;;;;;5103889;28;19928;-56
2023/08/29 09:25:15;;;;;;;;;;;23.10;53.60;;;;;;5120394;27;19924;-56
2023/08/29 09:27:44;;;;;;;;;;;23.10;53.60;;;;;;5092912;28;19924;-55
2023/08/29 09:30:12;;;;;;;;;;;23.10;53.60;;;;;;5098378;27;19934;-56
2023/08/29 09:32:41;;;;;;;;;;;23.10;53.60;;;;;;5118452;27;19972;-56
2023/08/29 09:35:08;;;;;;;;;;;23.10;53.60;;;;;;5099544;27;19927;-57
2023/08/29 09:37:35;;;;;;;;;;;23.10;53.60;;;;;;5093516;27;19932;-57
2023/08/29 09:40:04;;;;;;;;;;;23.10;53.60;;;;;;5129583;27;19980;-57
2023/08/29 09:42:30;;;;;;;;;;;23.10;53.60;;;;;;5093184;28;19942;-54
2023/08/29 09:44:59;;;;;;;;;;;23.10;53.60;;;;;;5118148;27;19973;-56
2023/08/29 09:47:26;;;;;;;;;;;23.10;53.70;;;;;;5100058;28;19967;-58
2023/08/29 09:49:53;;;;;;;;;;;23.10;53.70;;;;;;5111675;27;19924;-57
2023/08/29 09:52:19;;;;;;;;;;;23.10;53.70;;;;;;5112507;27;19924;-57
2023/08/29 09:54:48;;;;;;;;;;;23.10;53.70;;;;;;5102551;28;19924;-57
2023/08/29 09:57:15;;;;;;;;;;;23.10;53.70;;;;;;5111134;27;19928;-56
2023/08/29 09:59:42;;;;;;;;;;;23.10;53.70;;;;;;5109496;27;19977;-58
2023/08/29 10:02:12;;;;;;;;;;;23.10;53.70;;;;;;5090902;27;19928;-56
2023/08/29 10:04:46;;;;;;;;;;;23.10;53.80;;;;;;5129319;27;19995;-57
2023/08/29 10:07:13;;;;;;;;;;;23.10;53.70;;;;;;5092559;28;19977;-56
2023/08/29 10:09:40;;;;;;;;;;;23.10;53.70;;;;;;5104549;27;19966;-57
2023/08/29 10:12:07;;;;;;;;;;;23.10;53.70;;;;;;5096785;27;19923;-59
2023/08/29 10:14:34;;;;;;;;;;;23.20;53.80;;;;;;5097286;28;19923;-59
2023/08/29 10:17:01;;;;;;;;;;;23.10;53.70;;;;;;5100467;28;19928;-58
2023/08/29 10:19:29;;;;;;;;;;;23.20;53.80;;;;;;5101814;28;19974;-56
2023/08/29 10:21:56;;;;;;;;;;;23.20;53.70;;;;;;5118830;27;20411;-60
2023/08/29 10:24:23;;;;;;;;;;;23.20;53.80;;;;;;5098981;28;19964;-62
2023/08/29 10:26:50;;;;;;;;;;;23.20;53.80;;;;;;5095813;28;20197;-56
2023/08/29 10:29:17;;;;;;;;;;;23.20;53.80;;;;;;5094997;28;19923;-57
2023/08/29 10:31:44;;;;;;;;;;;23.20;53.80;;;;;;5086891;28;20015;-60
2023/08/29 10:34:11;;;;;;;;;;;23.20;53.70;;;;;;5126505;27;19931;-56
2023/08/29 10:36:40;;;;;;;;;;;23.20;53.70;;;;;;5104124;27;19934;-58
2023/08/29 10:39:09;;;;;;;;;;;23.20;53.70;;;;;;5098239;28;19924;-60
2023/08/29 10:41:44;;;;;;;;;;;23.20;53.70;;;;;;5116179;27;19927;-56
2023/08/29 10:44:29;;;;;;;;;;;23.30;53.80;;;;;;5128099;27;19928;-55
2023/08/29 10:46:57;;;;;;;;;;;23.20;53.70;;;;;;5129222;27;19972;-57
2023/08/29 10:49:24;;;;;;;;;;;23.20;53.60;;;;;;5095220;28;19981;-58
2023/08/29 10:52:06;;;;;;;;;;;23.20;53.60;;;;;;5111837;27;19928;-57
2023/08/29 10:54:34;;;;;;;;;;;23.30;53.70;;;;;;5109128;27;19928;-56
2023/08/29 10:57:00;;;;;;;;;;;23.20;53.60;;;;;;5096527;27;19973;-59
2023/08/29 10:59:32;;;;;;;;;;;23.20;53.50;;;;;;5094413;27;19930;-60
2023/08/29 11:02:18;;;;;;;;;;;23.20;53.50;;;;;;5093842;27;19939;-57
2023/08/29 11:04:45;;;;;;;;;;;23.30;53.60;;;;;;5084510;28;19950;-57
2023/08/29 11:07:15;;;;;;;;;;;23.20;53.50;;;;;;5099185;27;19980;-57
2023/08/29 11:09:44;;;;;;;;;;;23.30;53.60;;;;;;5094461;28;19924;-57
2023/08/29 11:12:12;;;;;;;;;;;23.20;53.40;;;;;;5113525;27;19923;-57
2023/08/29 11:14:55;;;;;;;;;;;23.30;53.50;;;;;;5121226;27;20058;-52
2023/08/29 11:17:24;;;;;;;;;;;23.30;53.50;;;;;;5090653;28;19923;-56
2023/08/29 11:19:53;;;;;;;;;;;23.30;53.50;;;;;;5094392;27;19923;-53
2023/08/29 11:22:22;;;;;;;;;;;23.30;53.50;;;;;;5095689;28;19927;-55
2023/08/29 11:24:54;;;;;;;;;;;23.30;53.20;;;;;;5092968;28;20395;-53
2023/08/29 11:27:21;;;;;;;;;;;23.20;52.80;;;;;;5094671;28;20015;-56
2023/08/29 11:29:48;;;;;;;;;;;23.30;52.20;;;;;;5090663;28;20416;-56
2023/08/29 11:32:15;;;;;;;;;;;23.20;51.60;;;;;;5096293;27;19923;-56
2023/08/29 11:34:42;;;;;;;;;;;23.20;51.20;;;;;;5097846;28;19928;-56
2023/08/29 11:37:09;;;;;;;;;;;23.10;51.10;;;;;;5103158;28;19931;-57
2023/08/29 11:39:36;;;;;;;;;;;23.00;51.10;;;;;;5098271;28;19959;-57
2023/08/29 11:42:05;;;;;;;;;;;23.00;51.10;;;;;;5117088;28;19976;-57
2023/08/29 11:44:33;;;;;;;;;;;23.00;50.90;;;;;;5096682;28;20291;-56
2023/08/29 11:47:00;;;;;;;;;;;23.00;51.00;;;;;;5096066;28;19935;-57
2023/08/29 11:49:26;;;;;;;;;;;22.90;50.90;;;;;;5093161;28;19931;-56
2023/08/29 11:51:54;;;;;;;;;;;22.90;51.00;;;;;;5093656;28;20396;-56
2023/08/29 11:54:40;;;;;;;;;;;22.90;50.80;;;;;;5112078;28;20022;-56
2023/08/29 11:57:10;;;;;;;;;;;22.90;50.40;;;;;;5090252;28;19932;-56
2023/08/29 11:59:37;;;;;;;;;;;22.90;50.60;;;;;;5095687;28;19924;-56
2023/08/29 12:02:04;;;;;;;;;;;22.90;50.60;;;;;;5097077;28;19997;-56
2023/08/29 12:04:32;;;;;;;;;;;22.90;50.60;;;;;;5116508;28;19923;-57
2023/08/29 12:07:05;;;;;;;;;;;22.90;50.40;;;;;;5105881;27;20002;-56
2023/08/29 12:09:32;;;;;;;;;;;22.90;50.30;;;;;;5107819;27;19924;-56
2023/08/29 12:11:59;;;;;;;;;;;22.90;50.40;;;;;;5100937;27;19935;-56
2023/08/29 12:14:28;;;;;;;;;;;22.80;50.40;;;;;;5133219;27;19932;-56
2023/08/29 12:16:55;;;;;;;;;;;22.80;50.40;;;;;;5128610;27;19958;-56
2023/08/29 12:19:22;;;;;;;;;;;22.80;50.00;;;;;;5127441;27;19927;-57
2023/08/29 12:21:55;;;;;;;;;;;22.80;50.10;;;;;;5104205;27;19923;-56
2023/08/29 12:24:21;;;;;;;;;;;22.80;50.10;;;;;;5098962;28;19943;-56
2023/08/29 12:26:48;;;;;;;;;;;22.80;50.10;;;;;;5098248;27;19927;-56
2023/08/29 12:29:16;;;;;;;;;;;22.80;50.00;;;;;;5117617;27;19923;-56
2023/08/29 12:31:44;;;;;;;;;;;22.80;50.00;;;;;;5126045;27;20479;-57
2023/08/29 12:34:11;;;;;;;;;;;22.80;49.90;;;;;;5106665;27;19924;-56
2023/08/29 12:36:38;;;;;;;;;;;22.80;49.90;;;;;;5116754;27;19931;-56
2023/08/29 12:39:05;;;;;;;;;;;22.80;49.80;;;;;;5106293;28;19924;-55
2023/08/29 12:41:32;;;;;;;;;;;22.80;49.90;;;;;;5105076;28;19928;-56
2023/08/29 12:43:59;;;;;;;;;;;22.80;49.70;;;;;;5137996;27;19924;-55
2023/08/29 12:46:26;;;;;;;;;;;22.80;49.70;;;;;;5107080;28;19939;-57
2023/08/29 12:48:54;;;;;;;;;;;22.80;49.80;;;;;;5119105;27;19931;-56
2023/08/29 12:51:21;;;;;;;;;;;22.80;49.50;;;;;;5124123;27;19924;-58
2023/08/29 12:53:49;;;;;;;;;;;22.80;49.30;;;;;;5105051;27;20423;-55
2023/08/29 12:56:16;;;;;;;;;;;22.80;49.40;;;;;;5099746;27;19927;-57
2023/08/29 12:58:43;;;;;;;;;;;22.80;49.40;;;;;;5100009;28;19947;-55
2023/08/29 13:01:10;;;;;;;;;;;22.80;49.30;;;;;;5113002;27;19947;-57
2023/08/29 13:03:37;;;;;;;;;;;22.80;49.30;;;;;;5099866;28;20023;-57
2023/08/29 13:06:05;;;;;;;;;;;22.80;49.10;;;;;;5105885;28;20008;-56
2023/08/29 13:08:32;;;;;;;;;;;22.80;49.00;;;;;;5133217;27;19924;-58
2023/08/29 13:10:59;;;;;;;;;;;22.80;48.80;;;;;;5128517;27;19924;-56
2023/08/29 13:13:26;;;;;;;;;;;22.80;48.70;;;;;;5118073;27;19923;-57
2023/08/29 13:15:53;;;;;;;;;;;22.80;48.80;;;;;;5115222;27;20350;-58
2023/08/29 13:18:21;;;;;;;;;;;22.80;48.70;;;;;;5095482;28;19963;-58
2023/08/29 13:20:48;;;;;;;;;;;22.80;48.60;;;;;;5117211;27;19951;-58
2023/08/29 13:23:16;;;;;;;;;;;22.80;48.30;;;;;;5096339;28;19923;-58
2023/08/29 13:25:43;;;;;;;;;;;22.80;47.90;;;;;;5093482;28;19924;-56
2023/08/29 13:28:10;;;;;;;;;;;22.80;48.00;;;;;;5099234;27;19935;-56
2023/08/29 13:30:37;;;;;;;;;;;22.70;47.80;;;;;;5097735;28;19931;-56
2023/08/29 13:33:04;;;;;;;;;;;22.70;47.70;;;;;;5098363;27;20276;-55
2023/08/29 13:35:31;;;;;;;;;;;22.70;47.80;;;;;;5105586;28;19931;-57
2023/08/29 13:37:57;;;;;;;;;;;22.80;47.90;;;;;;5100586;27;19924;-57
2023/08/29 13:40:26;;;;;;;;;;;22.80;47.90;;;;;;5103358;28;20088;-56
2023/08/29 13:42:53;;;;;;;;;;;22.80;47.90;;;;;;5105834;27;19924;-55
2023/08/29 13:45:20;;;;;;;;;;;22.80;47.70;;;;;;5104721;28;19949;-58
2023/08/29 13:47:47;;;;;;;;;;;22.70;47.80;;;;;;5111626;27;19931;-58
2023/08/29 13:50:14;;;;;;;;;;;22.80;47.90;;;;;;5098263;27;19932;-57
2023/08/29 13:52:41;;;;;;;;;;;22.80;48.00;;;;;;5109339;27;19981;-57
2023/08/29 13:55:08;;;;;;;;;;;22.80;47.90;;;;;;5113245;27;19930;-57
2023/08/29 13:57:36;;;;;;;;;;;22.80;48.00;;;;;;5132146;27;19924;-57
2023/08/29 14:00:05;;;;;;;;;;;22.80;48.10;;;;;;5105589;27;19930;-57
2023/08/29 14:02:31;;;;;;;;;;;22.80;48.10;;;;;;5115507;27;19931;-57
2023/08/29 14:04:58;;;;;;;;;;;22.80;48.00;;;;;;5101399;27;19934;-56
2023/08/29 14:07:25;;;;;;;;;;;22.80;48.50;;;;;;5100233;27;19927;-57
2023/08/29 14:09:52;;;;;;;;;;;22.80;47.90;;;;;;5092987;28;19928;-57
2023/08/29 14:12:19;;;;;;;;;;;22.80;47.90;;;;;;5106957;28;19942;-55
2023/08/29 14:14:47;;;;;;;;;;;22.80;47.90;;;;;;5127482;27;19923;-56
2023/08/29 14:17:14;;;;;;;;;;;22.80;48.10;;;;;;5101218;27;19938;-57